INFORMACIÓN METAR y TAF
METAR FOR LROP
ADDS - METARS form results

(1941 UTC 04 June 2020)
Data provider http://aviationweather.gov/metar/data/
 
METAR text: LROP 041930Z 19004KT CAVOK 17/14 Q1008 NOSIG
Conditions at: LROP (BUCHAREST/OTOPEN, RO) observed 1930 UTC 04 June 2020
Temperature: 17.0°C (63°F)
Dewpoint: 14.0°C (57°F) [RH = 82%]
Pressure (altimeter): 29.76 inches Hg (1008.0 mb)
Winds: from the S (190 degrees) at 5 MPH (4 knots; 2.1 m/s)
Visibility: 6 or more miles (10+ km)
Ceiling: ceiling and visibility are OK
Clouds: unknown
Weather: no significant weather observed at this time

METAR text: LROP 041900Z 20006KT CAVOK 18/12 Q1008 NOSIG
Conditions at: LROP (BUCHAREST/OTOPEN, RO) observed 1900 UTC 04 June 2020
Temperature: 18.0°C (64°F)
Dewpoint: 12.0°C (54°F) [RH = 68%]
Pressure (altimeter): 29.76 inches Hg (1008.0 mb)
Winds: from the SSW (200 degrees) at 7 MPH (6 knots; 3.1 m/s)
Visibility: 6 or more miles (10+ km)
Ceiling: ceiling and visibility are OK
Clouds: unknown
Weather: no significant weather observed at this time

Forecast for: LROP (BUCHAREST/OTOPEN, RO)
Text: TAF LROP 041700Z 0418/0518 24008KT CAVOK
Forecast period: 1800 UTC 04 June 2020 to 1800 UTC 05 June 2020
Forecast type: FROM: standard forecast or significant change
Winds: from the WSW (240 degrees) at 9 MPH (8 knots; 4.1 m/s)
Visibility: 6 or more miles 10+ km)
Ceiling: unknown
Clouds: missing
Weather: NSW  (no significant weather)
Text: TEMPO 0500/0504 3000 BR
Forecast period: 0000 to 0400 UTC 05 June 2020
Forecast type: TEMPORARY: The following changes expected for less than half the time period
Visibility: 1.86 miles (2.99 km)
Ceiling: unknown
Clouds: missing
Weather: BR  (mist)

 MAPA DE AEROPUERTO

 INFORMACIÓN DE PISTA
Pista 08L Longitud 11484 ft Ancho 148 ft
Elevación 313 ft Umbral desplazado 0 ft Rumbo de pista 84
Pista 26R Longitud 11484 ft Ancho 148 ft
Elevación 303 ft Umbral desplazado 0 ft Rumbo de pista 264
Pista 08R Longitud 11484 ft Ancho 148 ft
Elevación 314 ft Umbral desplazado 0 ft Rumbo de pista 84
Pista 26L Longitud 11484 ft Ancho 148 ft
Elevación 303 ft Umbral desplazado 0 ft Rumbo de pista 264

 FRECUANCIAS DEL AEROPUERTO
Tipo APP Nombre BUCURESTI Frecuencia 118.25 MHZ
Tipo ATIS Nombre OTOPENI AT Frecuencia 118.5 MHZ
Tipo GND Nombre OTOPENI GN Frecuencia 121.7 MHZ
Tipo TWR Nombre OTOPENI TW Frecuencia 120.9 MHZ

 RADIO AYUDAS DEL AEROPUERTO
Tipo VOR-DME Nombre Floresti Frecuencia 112200 KHZ
Tipo NDB Nombre Otopeni Frecuencia 349 KHZ
Tipo NDB Nombre Otopeni Frecuencia 268 KHZ
Tipo NDB Nombre Otopeni Frecuencia 370 KHZ
Tipo VOR-DME Nombre Strejnic Frecuencia 113200 KHZ